createdAt,value
2019-02-09T00:02:07.852Z,1.30
2019-02-09T00:04:48.679Z,1.05
2019-02-09T00:07:29.056Z,1.30
2019-02-09T00:10:09.875Z,1.40
2019-02-09T00:12:50.783Z,1.42
2019-02-09T00:15:31.411Z,1.85
2019-02-09T00:18:12.100Z,1.80
2019-02-09T00:20:52.704Z,1.27
2019-02-09T00:23:33.532Z,1.50
2019-02-09T00:26:14.079Z,1.35
2019-02-09T00:28:54.551Z,1.17
2019-02-09T00:31:35.090Z,1.00
2019-02-09T00:34:15.628Z,1.37
2019-02-09T00:36:56.415Z,1.72
2019-02-09T00:39:37.909Z,1.27
2019-02-09T00:42:18.712Z,1.40
2019-02-09T00:44:59.320Z,0.88
2019-02-09T00:47:40.048Z,1.10
2019-02-09T00:50:20.635Z,0.90
2019-02-09T00:53:01.248Z,0.78
2019-02-09T00:55:41.767Z,1.12
2019-02-09T00:58:22.903Z,0.80
2019-02-09T01:01:03.608Z,1.15
2019-02-09T01:03:44.020Z,1.20
2019-02-09T01:06:24.971Z,1.00
2019-02-09T01:09:05.784Z,1.20
2019-02-09T01:11:46.614Z,0.60
2019-02-09T01:14:27.015Z,1.20
2019-02-09T01:17:07.768Z,1.17
2019-02-09T01:19:48.648Z,1.02
2019-02-09T01:22:29.439Z,1.30
2019-02-09T01:25:10.194Z,1.15
2019-02-09T01:27:50.514Z,0.90
2019-02-09T01:30:31.332Z,0.70
2019-02-09T01:33:11.869Z,1.00
2019-02-09T01:35:52.455Z,0.80
2019-02-09T01:38:32.865Z,0.80
2019-02-09T01:41:13.631Z,0.90
2019-02-09T01:43:54.177Z,1.22
2019-02-09T01:46:35.023Z,1.00
2019-02-09T01:49:15.941Z,0.95
2019-02-09T01:51:56.815Z,0.72
2019-02-09T01:54:37.641Z,0.95
2019-02-09T01:57:18.664Z,1.00
2019-02-09T01:59:59.851Z,1.10
2019-02-09T02:02:40.329Z,1.10
2019-02-09T02:05:20.791Z,0.98
2019-02-09T02:08:01.662Z,1.30
2019-02-09T02:10:42.408Z,1.20
2019-02-09T02:13:23.100Z,0.95
2019-02-09T02:16:03.672Z,1.20
2019-02-09T02:18:44.404Z,1.50
2019-02-09T02:21:25.179Z,0.98
2019-02-09T02:24:05.984Z,1.30
2019-02-09T02:26:46.904Z,2.00
2019-02-09T02:29:27.640Z,1.27
2019-02-09T02:32:08.774Z,1.90
2019-02-09T02:34:49.381Z,2.25
2019-02-09T02:37:30.336Z,1.80
2019-02-09T02:40:11.200Z,1.25
2019-02-09T02:42:52.175Z,1.62
2019-02-09T02:45:32.503Z,1.42
2019-02-09T02:48:13.543Z,1.70
2019-02-09T02:50:54.555Z,1.80
2019-02-09T02:53:35.155Z,2.17
2019-02-09T02:56:15.644Z,2.47
2019-02-09T02:58:56.111Z,2.25
2019-02-09T03:01:36.723Z,2.55
2019-02-09T03:04:17.472Z,2.67
2019-02-09T03:06:58.241Z,2.33
2019-02-09T03:09:39.103Z,2.35
2019-02-09T03:12:20.118Z,2.25
2019-02-09T03:15:01.102Z,2.45
2019-02-09T03:17:42.003Z,2.70
2019-02-09T03:20:22.606Z,2.58
2019-02-09T03:23:03.223Z,2.52
2019-02-09T03:25:43.750Z,2.25
2019-02-09T03:28:24.380Z,2.90
2019-02-09T03:31:04.999Z,2.42
2019-02-09T03:33:45.713Z,2.67
2019-02-09T03:36:26.647Z,2.50
2019-02-09T03:39:07.409Z,2.33
2019-02-09T03:41:48.223Z,2.27
2019-02-09T03:44:28.899Z,2.00
2019-02-09T03:47:09.723Z,2.20
2019-02-09T03:49:50.444Z,2.77
2019-02-09T03:52:30.973Z,2.55
2019-02-09T03:55:11.651Z,2.20
2019-02-09T03:57:52.213Z,2.30
2019-02-09T04:00:32.741Z,2.35
2019-02-09T04:03:13.461Z,2.90
2019-02-09T04:05:54.214Z,2.33
2019-02-09T04:08:34.790Z,2.30
2019-02-09T04:11:15.286Z,2.05
2019-02-09T04:13:55.728Z,2.92
2019-02-09T04:16:36.431Z,2.80
2019-02-09T04:19:16.984Z,2.80
2019-02-09T04:21:57.846Z,2.67
2019-02-09T04:24:38.747Z,3.42
2019-02-09T04:27:19.479Z,3.47
2019-02-09T04:29:59.967Z,2.75
2019-02-09T04:32:40.739Z,3.50
2019-02-09T04:35:21.656Z,2.72
2019-02-09T04:38:02.484Z,2.30
2019-02-09T04:40:43.132Z,2.60
2019-02-09T04:43:24.047Z,2.40
2019-02-09T04:46:04.673Z,3.17
2019-02-09T04:48:45.665Z,2.50
2019-02-09T04:51:26.613Z,2.87
2019-02-09T04:54:05.499Z,2.02
2019-02-09T04:56:53.432Z,2.35
2019-02-09T04:59:41.347Z,1.87
2019-02-09T05:02:29.256Z,2.30
2019-02-09T05:05:17.227Z,2.15
2019-02-09T05:08:05.152Z,2.05
2019-02-09T05:10:53.067Z,1.92
2019-02-09T05:13:41.007Z,2.60
2019-02-09T05:16:28.936Z,2.30
2019-02-09T05:19:16.845Z,1.67
2019-02-09T05:22:04.842Z,2.45
2019-02-09T05:24:52.745Z,2.15
2019-02-09T05:27:33.549Z,2.90
2019-02-09T05:30:14.307Z,2.27
2019-02-09T05:32:54.860Z,1.85
2019-02-09T05:35:36.155Z,2.75
2019-02-09T05:38:16.888Z,2.45
2019-02-09T05:40:57.720Z,2.95
2019-02-09T05:43:38.724Z,2.55
2019-02-09T05:46:19.217Z,2.35
2019-02-09T05:49:00.161Z,2.60
2019-02-09T05:51:40.465Z,2.35
2019-02-09T05:54:21.227Z,2.30
2019-02-09T05:57:02.016Z,2.87
2019-02-09T05:59:42.515Z,3.17
2019-02-09T06:02:23.321Z,2.70
2019-02-09T06:05:03.919Z,2.72
2019-02-09T06:07:44.529Z,2.20
2019-02-09T06:10:25.066Z,2.80
2019-02-09T06:13:05.413Z,3.35
2019-02-09T06:15:46.181Z,3.00
2019-02-09T06:18:26.644Z,3.55
2019-02-09T06:21:07.043Z,3.10
2019-02-09T06:23:47.735Z,3.00
2019-02-09T06:26:28.223Z,3.47
2019-02-09T06:29:09.302Z,3.40
2019-02-09T06:31:51.781Z,3.15
2019-02-09T06:34:32.052Z,3.55
2019-02-09T06:37:12.459Z,2.85
2019-02-09T06:39:52.860Z,3.40
2019-02-09T06:42:33.727Z,3.33
2019-02-09T06:45:14.744Z,3.20
2019-02-09T06:47:55.619Z,3.35
2019-02-09T06:50:36.246Z,3.05
2019-02-09T06:53:17.137Z,3.77
2019-02-09T06:55:58.407Z,3.10
2019-02-09T06:58:39.131Z,3.10
2019-02-09T07:01:19.927Z,3.00
2019-02-09T07:04:01.045Z,3.08
2019-02-09T07:06:41.985Z,3.02
2019-02-09T07:09:22.625Z,2.70
2019-02-09T07:12:03.979Z,2.70
2019-02-09T07:14:44.949Z,2.75
2019-02-09T07:17:25.532Z,1.90
2019-02-09T07:20:06.051Z,2.98
2019-02-09T07:22:47.370Z,2.10
2019-02-09T07:25:28.563Z,2.12
2019-02-09T07:28:09.427Z,2.50
2019-02-09T07:30:50.110Z,2.20
2019-02-09T07:33:30.790Z,1.90
2019-02-09T07:36:11.449Z,2.00
2019-02-09T07:38:52.023Z,2.65
2019-02-09T07:41:32.709Z,2.00
2019-02-09T07:44:13.283Z,2.30
2019-02-09T07:46:54.424Z,2.40
2019-02-09T07:49:35.539Z,2.02
2019-02-09T07:52:16.452Z,2.02
2019-02-09T07:54:57.288Z,2.37
2019-02-09T07:57:37.851Z,2.50
2019-02-09T08:00:18.821Z,2.42
2019-02-09T08:02:59.761Z,1.90
2019-02-09T08:05:40.208Z,2.60
2019-02-09T08:08:20.720Z,2.50
2019-02-09T08:11:08.787Z,2.15
2019-02-09T08:13:44.320Z,2.17
2019-02-09T08:16:25.047Z,2.35
2019-02-09T08:19:05.483Z,1.80
2019-02-09T08:21:46.121Z,1.70
2019-02-09T08:24:26.906Z,2.17
2019-02-09T08:27:07.419Z,2.27
2019-02-09T08:29:48.155Z,2.22
2019-02-09T08:32:28.509Z,1.92
2019-02-09T08:35:08.944Z,1.87
2019-02-09T08:37:50.123Z,1.90
2019-02-09T08:40:30.931Z,2.37
2019-02-09T08:43:11.600Z,2.10
2019-02-09T08:45:52.104Z,2.00
2019-02-09T08:48:32.800Z,1.85
2019-02-09T08:51:14.035Z,2.40
2019-02-09T08:53:54.772Z,1.85
2019-02-09T08:56:35.140Z,2.10
2019-02-09T08:59:16.079Z,1.72
2019-02-09T09:01:56.736Z,1.90
2019-02-09T09:04:37.652Z,2.20
2019-02-09T09:07:18.204Z,1.80
2019-02-09T09:09:58.808Z,1.85
2019-02-09T09:12:39.463Z,2.00
2019-02-09T09:15:20.140Z,2.35
2019-02-09T09:18:00.695Z,1.75
2019-02-09T09:20:41.204Z,1.75
2019-02-09T09:23:21.843Z,2.00
2019-02-09T09:26:02.464Z,2.20
2019-02-09T09:28:43.627Z,1.70
2019-02-09T09:31:24.149Z,2.05
2019-02-09T09:34:04.696Z,2.00
2019-02-09T09:36:45.391Z,1.77
2019-02-09T09:39:26.275Z,4.85
2019-02-09T09:42:07.035Z,2.25
2019-02-09T09:44:48.051Z,1.80
2019-02-09T09:47:28.443Z,3.37
2019-02-09T09:50:09.386Z,2.90
2019-02-09T09:52:50.296Z,2.10
2019-02-09T09:55:31.112Z,2.10
2019-02-09T09:58:12.083Z,1.52
2019-02-09T10:00:52.847Z,1.70
2019-02-09T10:03:33.540Z,1.90
2019-02-09T10:06:14.462Z,1.90
2019-02-09T10:08:55.328Z,1.50
2019-02-09T10:11:35.960Z,2.05
2019-02-09T10:14:16.764Z,1.80
2019-02-09T10:16:57.684Z,1.70
2019-02-09T10:19:38.583Z,1.60
2019-02-09T10:22:19.132Z,1.90
2019-02-09T10:24:59.790Z,1.85
2019-02-09T10:27:40.557Z,2.20
2019-02-09T10:30:21.160Z,1.55
2019-02-09T10:33:01.780Z,1.55
2019-02-09T10:35:42.588Z,1.62
2019-02-09T10:38:23.192Z,1.98
2019-02-09T10:41:04.013Z,1.55
2019-02-09T10:43:44.768Z,1.67
2019-02-09T10:46:25.727Z,1.72
2019-02-09T10:49:06.412Z,2.00
2019-02-09T10:51:47.491Z,1.30
2019-02-09T10:54:28.203Z,1.75
2019-02-09T10:57:08.892Z,1.50
2019-02-09T10:59:49.856Z,1.57
2019-02-09T11:02:30.483Z,1.27
2019-02-09T11:05:11.136Z,1.98
2019-02-09T11:07:51.674Z,1.70
2019-02-09T11:10:32.268Z,1.70
2019-02-09T11:13:12.828Z,1.95
2019-02-09T11:15:53.780Z,1.90
2019-02-09T11:18:34.536Z,1.32
2019-02-09T11:21:15.322Z,1.52
2019-02-09T11:23:55.783Z,1.30
2019-02-09T11:26:36.279Z,1.40
2019-02-09T11:29:17.560Z,1.40
2019-02-09T11:31:58.400Z,1.42
2019-02-09T11:34:39.011Z,1.30
2019-02-09T11:37:19.536Z,1.20
2019-02-09T11:40:00.260Z,1.22
2019-02-09T11:42:40.759Z,1.60
2019-02-09T11:45:21.205Z,1.72
2019-02-09T11:48:01.652Z,1.20
2019-02-09T11:50:42.401Z,1.32
2019-02-09T11:53:23.341Z,1.30
2019-02-09T11:56:04.445Z,1.45
2019-02-09T11:58:45.663Z,1.57
2019-02-09T12:01:26.427Z,1.55
2019-02-09T12:04:06.916Z,1.17
2019-02-09T12:06:48.010Z,1.32
2019-02-09T12:09:28.483Z,1.30
2019-02-09T12:12:09.324Z,1.07
2019-02-09T12:14:50.191Z,1.55
2019-02-09T12:17:30.684Z,1.30
2019-02-09T12:20:11.379Z,1.70
2019-02-09T12:22:52.072Z,0.90
2019-02-09T12:25:32.916Z,1.15
2019-02-09T12:28:14.207Z,1.10
2019-02-09T12:30:55.114Z,1.02
2019-02-09T12:33:35.612Z,1.22
2019-02-09T12:36:15.932Z,1.00
2019-02-09T12:38:57.083Z,1.17
2019-02-09T12:41:38.259Z,1.00
2019-02-09T12:44:18.770Z,1.07
2019-02-09T12:46:59.415Z,1.10
2019-02-09T12:49:40.719Z,1.07
2019-02-09T12:52:21.763Z,1.35
2019-02-09T12:55:02.712Z,2.00
2019-02-09T12:57:43.415Z,2.45
2019-02-09T13:00:24.549Z,1.35
2019-02-09T13:03:05.147Z,1.52
2019-02-09T13:05:45.802Z,2.05
2019-02-09T13:08:26.527Z,2.30
2019-02-09T13:11:07.378Z,1.60
2019-02-09T13:13:47.957Z,1.30
2019-02-09T13:16:28.771Z,1.55
2019-02-09T13:19:09.388Z,1.25
2019-02-09T13:21:50.362Z,1.95
2019-02-09T13:24:31.225Z,2.17
2019-02-09T13:27:12.027Z,1.40
2019-02-09T13:29:52.720Z,2.10
2019-02-09T13:32:33.607Z,2.02
2019-02-09T13:35:14.559Z,1.02
2019-02-09T13:37:55.120Z,1.47
2019-02-09T13:40:35.796Z,1.30
2019-02-09T13:43:16.424Z,2.50
2019-02-09T13:45:57.335Z,1.70
2019-02-09T13:48:37.727Z,2.47
2019-02-09T13:51:18.969Z,1.30
2019-02-09T13:53:59.311Z,2.20
2019-02-09T13:56:40.327Z,2.15
2019-02-09T13:59:21.052Z,1.30
2019-02-09T14:02:01.578Z,1.80
2019-02-09T14:04:42.436Z,1.80
2019-02-09T14:07:23.143Z,1.55
2019-02-09T14:10:03.480Z,1.70
2019-02-09T14:12:44.572Z,1.70
2019-02-09T14:15:25.455Z,1.80
2019-02-09T14:18:06.359Z,2.00
2019-02-09T14:20:47.055Z,1.80
2019-02-09T14:23:28.379Z,1.45
2019-02-09T14:26:09.249Z,1.37
2019-02-09T14:28:49.804Z,0.95
2019-02-09T14:31:30.649Z,0.85
2019-02-09T14:34:11.249Z,1.80
2019-02-09T14:36:52.415Z,1.25
2019-02-09T14:39:33.716Z,1.22
2019-02-09T14:42:14.723Z,1.17
2019-02-09T14:44:55.216Z,1.30
2019-02-09T14:47:36.187Z,0.90
2019-02-09T14:50:16.560Z,1.25
2019-02-09T14:52:57.003Z,1.80
2019-02-09T14:55:37.867Z,2.12
2019-02-09T14:58:18.229Z,1.60
2019-02-09T15:00:58.842Z,1.32
2019-02-09T15:03:39.591Z,1.50
2019-02-09T15:06:20.623Z,1.77
2019-02-09T15:09:01.208Z,1.20
2019-02-09T15:11:41.939Z,1.20
2019-02-09T15:14:22.451Z,1.20
2019-02-09T15:17:05.624Z,1.40
2019-02-09T15:19:45.124Z,1.40
2019-02-09T15:22:25.731Z,1.30
2019-02-09T15:25:06.969Z,1.45
2019-02-09T15:27:47.865Z,1.30
2019-02-09T15:30:28.511Z,2.75
2019-02-09T15:33:09.421Z,3.25
2019-02-09T15:35:49.795Z,2.15
2019-02-09T15:38:30.640Z,1.70
2019-02-09T15:41:11.407Z,2.22
2019-02-09T15:43:52.231Z,1.95
2019-02-09T15:46:32.595Z,1.82
2019-02-09T15:49:13.621Z,2.50
2019-02-09T15:51:54.332Z,1.47
2019-02-09T15:54:35.198Z,2.02
2019-02-09T15:57:15.576Z,1.40
2019-02-09T15:59:56.576Z,1.30
2019-02-09T16:02:37.636Z,1.10
2019-02-09T16:05:19.221Z,1.65
2019-02-09T16:07:59.579Z,1.70
2019-02-09T16:10:40.304Z,1.30
2019-02-09T16:13:20.869Z,1.30
2019-02-09T16:16:01.734Z,4.42
2019-02-09T16:18:42.448Z,1.30
2019-02-09T16:21:23.135Z,1.30
2019-02-09T16:24:03.839Z,1.40
2019-02-09T16:26:45.100Z,1.57
2019-02-09T16:29:25.936Z,1.55
2019-02-09T16:32:06.456Z,1.60
2019-02-09T16:34:47.291Z,3.52
2019-02-09T16:37:27.656Z,2.55
2019-02-09T16:40:08.484Z,1.70
2019-02-09T16:42:49.239Z,1.30
2019-02-09T16:45:30.203Z,1.37
2019-02-09T16:48:10.976Z,1.72
2019-02-09T16:50:51.415Z,1.52
2019-02-09T16:53:32.195Z,1.27
2019-02-09T16:56:12.959Z,1.30
2019-02-09T16:58:53.612Z,2.30
2019-02-09T17:01:34.172Z,2.08
2019-02-09T17:04:15.264Z,3.22
2019-02-09T17:06:55.908Z,2.05
2019-02-09T17:09:36.530Z,1.10
2019-02-09T17:12:17.237Z,1.55
2019-02-09T17:14:57.731Z,1.55
2019-02-09T17:17:38.157Z,1.50
2019-02-09T17:20:18.933Z,2.50
2019-02-09T17:22:59.791Z,2.62
2019-02-09T17:25:40.692Z,3.00
2019-02-09T17:28:21.407Z,2.33
2019-02-09T17:31:02.120Z,3.72
2019-02-09T17:33:42.615Z,1.85
2019-02-09T17:36:22.992Z,1.92
2019-02-09T17:39:04.238Z,1.90
2019-02-09T17:41:45.095Z,2.00
2019-02-09T17:44:25.882Z,1.98
2019-02-09T17:47:06.561Z,2.50
2019-02-09T17:49:47.233Z,2.20
2019-02-09T17:52:27.869Z,2.00
2019-02-09T17:55:08.540Z,2.08
2019-02-09T17:57:49.312Z,1.60
2019-02-09T18:00:34.918Z,1.80
2019-02-09T18:03:15.458Z,1.45
2019-02-09T18:05:56.176Z,2.40
2019-02-09T18:08:36.752Z,1.77
2019-02-09T18:11:17.742Z,1.95
2019-02-09T18:13:58.439Z,2.15
2019-02-09T18:16:39.111Z,1.80
2019-02-09T18:19:19.941Z,1.80
2019-02-09T18:22:00.652Z,2.20
2019-02-09T18:24:41.903Z,2.25
2019-02-09T18:27:22.625Z,1.50
2019-02-09T18:30:03.131Z,2.15
2019-02-09T18:32:43.754Z,1.80
2019-02-09T18:35:24.415Z,2.40
2019-02-09T18:38:04.822Z,2.10
2019-02-09T18:40:45.448Z,1.80
2019-02-09T18:43:25.824Z,1.80
2019-02-09T18:46:06.543Z,1.70
2019-02-09T18:48:47.280Z,2.00
2019-02-09T18:51:28.357Z,1.65
2019-02-09T18:54:09.091Z,2.33
2019-02-09T18:56:49.683Z,1.82
2019-02-09T18:59:30.248Z,1.85
2019-02-09T19:02:10.971Z,1.60
2019-02-09T19:04:51.703Z,1.85
2019-02-09T19:07:32.463Z,1.90
2019-02-09T19:10:13.573Z,2.35
2019-02-09T19:12:54.464Z,2.70
2019-02-09T19:15:35.764Z,2.27
2019-02-09T19:18:16.584Z,2.08
2019-02-09T19:20:57.572Z,2.10
2019-02-09T19:23:38.338Z,1.95
2019-02-09T19:26:18.796Z,1.90
2019-02-09T19:28:59.276Z,2.90
2019-02-09T19:31:40.119Z,2.08
2019-02-09T19:34:20.599Z,1.72
2019-02-09T19:37:01.336Z,2.10
2019-02-09T19:39:41.667Z,2.83
2019-02-09T19:42:22.330Z,3.00
2019-02-09T19:45:02.989Z,2.27
2019-02-09T19:47:43.592Z,2.58
2019-02-09T19:50:24.340Z,2.40
2019-02-09T19:53:04.981Z,2.20
2019-02-09T19:55:45.565Z,2.25
2019-02-09T19:58:26.215Z,2.35
2019-02-09T20:01:07.084Z,1.57
2019-02-09T20:03:47.567Z,2.92
2019-02-09T20:06:28.334Z,2.20
2019-02-09T20:09:09.709Z,2.83
2019-02-09T20:11:50.532Z,3.90
2019-02-09T20:14:31.156Z,2.62
2019-02-09T20:17:11.948Z,3.05
2019-02-09T20:19:52.641Z,2.30
2019-02-09T20:22:33.140Z,2.35
2019-02-09T20:25:13.595Z,2.40
2019-02-09T20:27:54.240Z,2.47
2019-02-09T20:30:34.848Z,2.40
2019-02-09T20:33:15.728Z,1.92
2019-02-09T20:35:56.867Z,1.72
2019-02-09T20:38:37.764Z,2.05
2019-02-09T20:41:18.786Z,1.80
2019-02-09T20:43:59.328Z,2.55
2019-02-09T20:46:40.124Z,1.55
2019-02-09T20:49:21.084Z,2.35
2019-02-09T20:52:02.007Z,2.20
2019-02-09T20:54:42.891Z,2.08
2019-02-09T20:57:23.861Z,2.72
2019-02-09T21:00:04.596Z,2.20
2019-02-09T21:02:45.318Z,2.37
2019-02-09T21:05:26.139Z,2.30
2019-02-09T21:08:07.109Z,1.87
2019-02-09T21:10:47.776Z,2.02
2019-02-09T21:13:28.525Z,2.40
2019-02-09T21:16:09.307Z,1.82
2019-02-09T21:18:50.371Z,2.45
2019-02-09T21:21:30.933Z,2.35
2019-02-09T21:24:11.227Z,1.30
2019-02-09T21:26:50.071Z,2.40
2019-02-09T21:29:37.977Z,2.20
2019-02-09T21:32:25.902Z,1.98
2019-02-09T21:35:14.471Z,2.10
2019-02-09T21:38:02.407Z,1.85
2019-02-09T21:40:50.303Z,2.15
2019-02-09T21:43:38.235Z,2.33
2019-02-09T21:46:26.135Z,2.47
2019-02-09T21:49:14.060Z,1.92
2019-02-09T21:52:01.999Z,2.17
2019-02-09T21:54:49.910Z,2.00
2019-02-09T21:57:37.827Z,1.82
2019-02-09T22:00:26.500Z,1.95
2019-02-09T22:03:14.445Z,1.85
2019-02-09T22:06:02.339Z,1.75
2019-02-09T22:08:50.263Z,2.00
2019-02-09T22:11:38.191Z,1.70
2019-02-09T22:14:26.114Z,1.90
2019-02-09T22:17:14.071Z,1.67
2019-02-09T22:20:24.300Z,2.35
2019-02-09T22:23:12.220Z,1.90
2019-02-09T22:26:00.124Z,2.02
2019-02-09T22:28:48.048Z,2.05
2019-02-09T22:31:35.950Z,1.82
2019-02-09T22:34:23.883Z,2.33
2019-02-09T22:37:11.787Z,2.02
2019-02-09T22:39:59.720Z,2.02
2019-02-09T22:42:47.823Z,1.70
2019-02-09T22:45:35.786Z,1.42
2019-02-09T22:48:23.716Z,2.05
2019-02-09T22:51:11.619Z,2.52
2019-02-09T22:53:59.542Z,1.57
2019-02-09T22:56:47.444Z,1.60
2019-02-09T22:59:35.363Z,1.52
2019-02-09T23:02:23.336Z,1.55
2019-02-09T23:05:31.991Z,2.10
2019-02-09T23:08:19.924Z,1.72
2019-02-09T23:11:07.834Z,1.50
2019-02-09T23:13:55.827Z,1.72
2019-02-09T23:16:43.727Z,1.70
2019-02-09T23:19:31.656Z,1.67
2019-02-09T23:22:19.564Z,2.25
2019-02-09T23:25:07.487Z,1.95
2019-02-09T23:27:48.580Z,1.45
2019-02-09T23:30:29.421Z,1.70
2019-02-09T23:33:10.209Z,1.70
2019-02-09T23:35:50.986Z,2.08
2019-02-09T23:38:31.835Z,1.80
2019-02-09T23:41:12.527Z,1.72
2019-02-09T23:43:53.402Z,2.00
2019-02-09T23:46:34.276Z,1.87
2019-02-09T23:49:15.379Z,1.50
2019-02-09T23:51:56.327Z,1.60
2019-02-09T23:54:37.059Z,2.22
2019-02-09T23:57:17.795Z,1.75
2019-02-09T23:59:58.846Z,1.67
